sensor_id;sensor_type;location;lat;lon;timestamp;temperature;humidity
67799;SHT30;54596;43.216;27.904;2023-03-31T00:02:04;4.66;71.97
67799;SHT30;54596;43.216;27.904;2023-03-31T00:04:39;4.66;72.20
67799;SHT30;54596;43.216;27.904;2023-03-31T00:07:13;4.68;72.17
67799;SHT30;54596;43.216;27.904;2023-03-31T00:09:39;4.64;72.52
67799;SHT30;54596;43.216;27.904;2023-03-31T00:12:06;4.54;73.03
67799;SHT30;54596;43.216;27.904;2023-03-31T00:14:32;4.54;73.33
67799;SHT30;54596;43.216;27.904;2023-03-31T00:16:57;4.49;73.62
67799;SHT30;54596;43.216;27.904;2023-03-31T00:19:23;4.52;73.78
67799;SHT30;54596;43.216;27.904;2023-03-31T00:21:49;4.47;73.98
67799;SHT30;54596;43.216;27.904;2023-03-31T00:24:16;4.47;73.80
67799;SHT30;54596;43.216;27.904;2023-03-31T00:26:42;4.45;73.24
67799;SHT30;54596;43.216;27.904;2023-03-31T00:29:10;4.45;73.48
67799;SHT30;54596;43.216;27.904;2023-03-31T00:31:36;4.42;73.31
67799;SHT30;54596;43.216;27.904;2023-03-31T00:34:03;4.40;73.33
67799;SHT30;54596;43.216;27.904;2023-03-31T00:36:30;4.40;73.36
67799;SHT30;54596;43.216;27.904;2023-03-31T00:38:58;4.36;73.26
67799;SHT30;54596;43.216;27.904;2023-03-31T00:41:28;4.38;73.36
67799;SHT30;54596;43.216;27.904;2023-03-31T00:44:21;4.38;73.28
67799;SHT30;54596;43.216;27.904;2023-03-31T00:47:04;4.36;73.30
67799;SHT30;54596;43.216;27.904;2023-03-31T00:49:46;4.35;73.55
67799;SHT30;54596;43.216;27.904;2023-03-31T00:54:38;4.30;73.77
67799;SHT30;54596;43.216;27.904;2023-03-31T00:57:07;4.29;74.01
67799;SHT30;54596;43.216;27.904;2023-03-31T00:59:37;4.26;74.25
67799;SHT30;54596;43.216;27.904;2023-03-31T01:02:04;4.22;74.92
67799;SHT30;54596;43.216;27.904;2023-03-31T01:04:34;4.21;75.08
67799;SHT30;54596;43.216;27.904;2023-03-31T01:09:44;4.15;75.38
67799;SHT30;54596;43.216;27.904;2023-03-31T01:12:12;4.12;75.48
67799;SHT30;54596;43.216;27.904;2023-03-31T01:14:39;4.08;75.72
67799;SHT30;54596;43.216;27.904;2023-03-31T01:17:05;4.05;75.73
67799;SHT30;54596;43.216;27.904;2023-03-31T01:19:51;4.02;75.83
67799;SHT30;54596;43.216;27.904;2023-03-31T01:41:02;3.84;75.90
67799;SHT30;54596;43.216;27.904;2023-03-31T01:46:30;3.73;76.42
67799;SHT30;54596;43.216;27.904;2023-03-31T01:54:38;3.74;76.23
67799;SHT30;54596;43.216;27.904;2023-03-31T01:57:16;3.76;76.11
67799;SHT30;54596;43.216;27.904;2023-03-31T02:02:26;3.74;75.72
67799;SHT30;54596;43.216;27.904;2023-03-31T02:04:59;3.71;75.87
67799;SHT30;54596;43.216;27.904;2023-03-31T02:07:34;3.70;75.80
67799;SHT30;54596;43.216;27.904;2023-03-31T02:10:04;3.66;75.90
67799;SHT30;54596;43.216;27.904;2023-03-31T02:12:33;3.69;75.81
67799;SHT30;54596;43.216;27.904;2023-03-31T02:15:02;3.67;75.73
67799;SHT30;54596;43.216;27.904;2023-03-31T02:17:28;3.67;75.48
67799;SHT30;54596;43.216;27.904;2023-03-31T02:20:02;3.69;75.81
67799;SHT30;54596;43.216;27.904;2023-03-31T02:22:33;3.71;75.51
67799;SHT30;54596;43.216;27.904;2023-03-31T02:25:01;3.74;75.45
67799;SHT30;54596;43.216;27.904;2023-03-31T02:27:39;3.71;75.41
67799;SHT30;54596;43.216;27.904;2023-03-31T02:30:07;3.73;75.61
67799;SHT30;54596;43.216;27.904;2023-03-31T02:32:38;3.73;75.01
67799;SHT30;54596;43.216;27.904;2023-03-31T02:35:06;3.73;75.52
67799;SHT30;54596;43.216;27.904;2023-03-31T02:37:32;3.73;75.16
67799;SHT30;54596;43.216;27.904;2023-03-31T02:40:02;3.71;74.64
67799;SHT30;54596;43.216;27.904;2023-03-31T02:42:29;3.78;74.76
67799;SHT30;54596;43.216;27.904;2023-03-31T02:45:01;3.74;74.69
67799;SHT30;54596;43.216;27.904;2023-03-31T02:47:28;3.76;74.80
67799;SHT30;54596;43.216;27.904;2023-03-31T02:49:55;3.76;75.03
67799;SHT30;54596;43.216;27.904;2023-03-31T02:52:51;3.74;75.04
67799;SHT30;54596;43.216;27.904;2023-03-31T02:55:50;3.71;74.80
67799;SHT30;54596;43.216;27.904;2023-03-31T02:58:35;3.67;74.17
67799;SHT30;54596;43.216;27.904;2023-03-31T03:06:51;3.63;73.52
67799;SHT30;54596;43.216;27.904;2023-03-31T03:14:54;3.71;71.40
67799;SHT30;54596;43.216;27.904;2023-03-31T03:17:34;3.76;72.96
67799;SHT30;54596;43.216;27.904;2023-03-31T03:20:04;3.73;74.06
67799;SHT30;54596;43.216;27.904;2023-03-31T03:22:33;3.76;73.69
67799;SHT30;54596;43.216;27.904;2023-03-31T03:24:58;3.80;74.49
67799;SHT30;54596;43.216;27.904;2023-03-31T03:27:24;3.87;74.54
67799;SHT30;54596;43.216;27.904;2023-03-31T03:29:50;3.84;74.39
67799;SHT30;54596;43.216;27.904;2023-03-31T03:32:16;3.81;74.15
67799;SHT30;54596;43.216;27.904;2023-03-31T03:34:41;3.84;74.20
67799;SHT30;54596;43.216;27.904;2023-03-31T03:37:07;3.76;75.09
67799;SHT30;54596;43.216;27.904;2023-03-31T03:39:32;3.76;75.42
67799;SHT30;54596;43.216;27.904;2023-03-31T03:41:58;3.77;75.41
67799;SHT30;54596;43.216;27.904;2023-03-31T03:44:23;3.78;75.17
67799;SHT30;54596;43.216;27.904;2023-03-31T03:46:49;3.77;75.16
67799;SHT30;54596;43.216;27.904;2023-03-31T03:49:14;3.74;75.13
67799;SHT30;54596;43.216;27.904;2023-03-31T03:51:40;3.78;74.82
67799;SHT30;54596;43.216;27.904;2023-03-31T03:54:05;3.74;74.55
67799;SHT30;54596;43.216;27.904;2023-03-31T03:56:31;3.77;74.64
67799;SHT30;54596;43.216;27.904;2023-03-31T03:58:57;3.71;75.17
67799;SHT30;54596;43.216;27.904;2023-03-31T04:01:22;3.77;75.40
67799;SHT30;54596;43.216;27.904;2023-03-31T04:03:48;3.77;75.30
67799;SHT30;54596;43.216;27.904;2023-03-31T04:06:13;3.74;75.19
67799;SHT30;54596;43.216;27.904;2023-03-31T04:08:39;3.77;75.24
67799;SHT30;54596;43.216;27.904;2023-03-31T04:11:16;3.77;75.38
67799;SHT30;54596;43.216;27.904;2023-03-31T04:13:43;3.76;75.80
67799;SHT30;54596;43.216;27.904;2023-03-31T04:16:09;3.80;75.91
67799;SHT30;54596;43.216;27.904;2023-03-31T04:18:34;3.80;75.92
67799;SHT30;54596;43.216;27.904;2023-03-31T04:21:01;3.78;76.05
67799;SHT30;54596;43.216;27.904;2023-03-31T04:23:35;3.83;75.94
67799;SHT30;54596;43.216;27.904;2023-03-31T04:26:12;3.87;75.99
67799;SHT30;54596;43.216;27.904;2023-03-31T04:28:38;3.90;75.94
67799;SHT30;54596;43.216;27.904;2023-03-31T04:31:08;3.93;75.70
67799;SHT30;54596;43.216;27.904;2023-03-31T04:33:34;3.99;75.39
67799;SHT30;54596;43.216;27.904;2023-03-31T04:36:05;4.06;75.41
67799;SHT30;54596;43.216;27.904;2023-03-31T04:38:42;4.13;75.46
67799;SHT30;54596;43.216;27.904;2023-03-31T04:41:13;4.22;75.61
67799;SHT30;54596;43.216;27.904;2023-03-31T04:43:38;4.33;75.83
67799;SHT30;54596;43.216;27.904;2023-03-31T04:46:04;4.40;76.18
67799;SHT30;54596;43.216;27.904;2023-03-31T04:48:30;4.47;76.37
67799;SHT30;54596;43.216;27.904;2023-03-31T04:50:55;4.53;76.41
67799;SHT30;54596;43.216;27.904;2023-03-31T04:53:21;4.63;75.92
67799;SHT30;54596;43.216;27.904;2023-03-31T04:55:49;4.67;75.69
67799;SHT30;54596;43.216;27.904;2023-03-31T04:58:14;4.75;75.00
67799;SHT30;54596;43.216;27.904;2023-03-31T05:00:40;4.81;74.98
67799;SHT30;54596;43.216;27.904;2023-03-31T05:03:07;4.94;74.06
67799;SHT30;54596;43.216;27.904;2023-03-31T05:05:34;4.95;73.54
67799;SHT30;54596;43.216;27.904;2023-03-31T05:07:59;4.99;73.49
67799;SHT30;54596;43.216;27.904;2023-03-31T05:10:25;5.05;73.40
67799;SHT30;54596;43.216;27.904;2023-03-31T05:12:51;5.11;72.69
67799;SHT30;54596;43.216;27.904;2023-03-31T05:15:16;5.15;72.62
67799;SHT30;54596;43.216;27.904;2023-03-31T05:17:42;5.20;72.43
67799;SHT30;54596;43.216;27.904;2023-03-31T05:20:08;5.26;72.16
67799;SHT30;54596;43.216;27.904;2023-03-31T05:22:36;5.33;71.76
67799;SHT30;54596;43.216;27.904;2023-03-31T05:25:02;5.35;71.83
67799;SHT30;54596;43.216;27.904;2023-03-31T05:27:28;5.42;72.56
67799;SHT30;54596;43.216;27.904;2023-03-31T05:29:55;5.48;72.73
67799;SHT30;54596;43.216;27.904;2023-03-31T05:32:21;5.58;72.36
67799;SHT30;54596;43.216;27.904;2023-03-31T05:34:46;5.64;72.40
67799;SHT30;54596;43.216;27.904;2023-03-31T05:37:15;5.71;72.47
67799;SHT30;54596;43.216;27.904;2023-03-31T05:39:40;5.77;71.98
67799;SHT30;54596;43.216;27.904;2023-03-31T05:42:05;5.89;71.34
67799;SHT30;54596;43.216;27.904;2023-03-31T05:44:31;5.99;70.80
67799;SHT30;54596;43.216;27.904;2023-03-31T05:46:57;6.03;71.43
67799;SHT30;54596;43.216;27.904;2023-03-31T05:49:22;6.20;70.91
67799;SHT30;54596;43.216;27.904;2023-03-31T05:51:48;6.33;70.92
67799;SHT30;54596;43.216;27.904;2023-03-31T05:54:14;6.45;70.59
67799;SHT30;54596;43.216;27.904;2023-03-31T05:56:40;6.65;70.63
67799;SHT30;54596;43.216;27.904;2023-03-31T05:59:05;6.92;70.08
67799;SHT30;54596;43.216;27.904;2023-03-31T06:01:31;7.05;69.80
67799;SHT30;54596;43.216;27.904;2023-03-31T06:03:56;7.19;69.13
67799;SHT30;54596;43.216;27.904;2023-03-31T06:06:22;7.26;69.04
67799;SHT30;54596;43.216;27.904;2023-03-31T06:08:49;7.40;68.33
67799;SHT30;54596;43.216;27.904;2023-03-31T06:11:19;7.58;67.91
67799;SHT30;54596;43.216;27.904;2023-03-31T06:13:45;7.66;67.78
67799;SHT30;54596;43.216;27.904;2023-03-31T06:16:12;7.78;67.79
67799;SHT30;54596;43.216;27.904;2023-03-31T06:18:39;7.85;67.34
67799;SHT30;54596;43.216;27.904;2023-03-31T06:21:05;7.96;67.02
67799;SHT30;54596;43.216;27.904;2023-03-31T06:23:31;7.96;66.93
67799;SHT30;54596;43.216;27.904;2023-03-31T06:26:04;8.04;66.18
67799;SHT30;54596;43.216;27.904;2023-03-31T06:28:31;8.10;66.09
67799;SHT30;54596;43.216;27.904;2023-03-31T06:31:07;8.11;66.56
67799;SHT30;54596;43.216;27.904;2023-03-31T06:33:34;8.14;66.81
67799;SHT30;54596;43.216;27.904;2023-03-31T06:36:00;8.09;66.63
67799;SHT30;54596;43.216;27.904;2023-03-31T06:38:28;8.13;66.63
67799;SHT30;54596;43.216;27.904;2023-03-31T06:40:54;8.17;66.16
67799;SHT30;54596;43.216;27.904;2023-03-31T06:43:20;8.13;66.54
67799;SHT30;54596;43.216;27.904;2023-03-31T06:45:48;8.14;66.33
67799;SHT30;54596;43.216;27.904;2023-03-31T06:48:14;8.13;66.85
67799;SHT30;54596;43.216;27.904;2023-03-31T06:50:40;8.07;66.42
67799;SHT30;54596;43.216;27.904;2023-03-31T06:53:09;8.07;66.80
67799;SHT30;54596;43.216;27.904;2023-03-31T06:55:36;8.06;67.53
67799;SHT30;54596;43.216;27.904;2023-03-31T06:58:02;8.09;67.82
67799;SHT30;54596;43.216;27.904;2023-03-31T07:00:28;8.14;67.90
67799;SHT30;54596;43.216;27.904;2023-03-31T07:02:55;8.19;67.96
67799;SHT30;54596;43.216;27.904;2023-03-31T07:05:21;8.17;67.90
67799;SHT30;54596;43.216;27.904;2023-03-31T07:07:52;8.24;67.66
67799;SHT30;54596;43.216;27.904;2023-03-31T07:10:18;8.33;67.60
67799;SHT30;54596;43.216;27.904;2023-03-31T07:12:44;8.40;67.33
67799;SHT30;54596;43.216;27.904;2023-03-31T07:15:09;8.44;67.31
67799;SHT30;54596;43.216;27.904;2023-03-31T07:17:35;8.55;67.05
67799;SHT30;54596;43.216;27.904;2023-03-31T07:20:02;8.71;67.24
67799;SHT30;54596;43.216;27.904;2023-03-31T07:22:29;8.79;66.69
67799;SHT30;54596;43.216;27.904;2023-03-31T07:24:55;8.90;66.25
67799;SHT30;54596;43.216;27.904;2023-03-31T07:27:20;9.01;66.39
67799;SHT30;54596;43.216;27.904;2023-03-31T07:29:46;9.03;65.92
67799;SHT30;54596;43.216;27.904;2023-03-31T07:32:12;9.04;65.94
67799;SHT30;54596;43.216;27.904;2023-03-31T07:34:37;9.07;66.49
67799;SHT30;54596;43.216;27.904;2023-03-31T07:37:05;9.08;65.76
67799;SHT30;54596;43.216;27.904;2023-03-31T07:39:30;9.08;66.84
67799;SHT30;54596;43.216;27.904;2023-03-31T07:41:56;9.04;66.48
67799;SHT30;54596;43.216;27.904;2023-03-31T07:44:21;9.10;66.24
67799;SHT30;54596;43.216;27.904;2023-03-31T07:46:47;9.11;66.42
67799;SHT30;54596;43.216;27.904;2023-03-31T07:49:13;9.14;66.08
67799;SHT30;54596;43.216;27.904;2023-03-31T07:51:40;9.18;65.10
67799;SHT30;54596;43.216;27.904;2023-03-31T07:54:06;9.24;64.55
67799;SHT30;54596;43.216;27.904;2023-03-31T07:56:32;9.36;62.29
67799;SHT30;54596;43.216;27.904;2023-03-31T07:58:57;9.42;62.00
67799;SHT30;54596;43.216;27.904;2023-03-31T08:01:23;9.53;62.51
67799;SHT30;54596;43.216;27.904;2023-03-31T08:03:50;9.59;62.45
67799;SHT30;54596;43.216;27.904;2023-03-31T08:06:23;9.61;61.60
67799;SHT30;54596;43.216;27.904;2023-03-31T08:08:49;9.65;62.00
67799;SHT30;54596;43.216;27.904;2023-03-31T08:11:15;9.61;61.33
67799;SHT30;54596;43.216;27.904;2023-03-31T08:13:40;9.66;61.27
67799;SHT30;54596;43.216;27.904;2023-03-31T08:16:06;9.63;61.14
67799;SHT30;54596;43.216;27.904;2023-03-31T08:18:31;9.66;62.25
67799;SHT30;54596;43.216;27.904;2023-03-31T08:20:57;9.55;62.89
67799;SHT30;54596;43.216;27.904;2023-03-31T08:23:22;9.53;63.33
67799;SHT30;54596;43.216;27.904;2023-03-31T08:25:48;9.46;63.90
67799;SHT30;54596;43.216;27.904;2023-03-31T08:28:13;9.42;64.51
67799;SHT30;54596;43.216;27.904;2023-03-31T08:30:40;9.39;65.24
67799;SHT30;54596;43.216;27.904;2023-03-31T08:33:06;9.34;66.51
67799;SHT30;54596;43.216;27.904;2023-03-31T08:35:33;9.35;67.28
67799;SHT30;54596;43.216;27.904;2023-03-31T08:37:59;9.30;67.78
67799;SHT30;54596;43.216;27.904;2023-03-31T08:40:26;9.30;68.59
67799;SHT30;54596;43.216;27.904;2023-03-31T08:42:55;9.32;70.15
67799;SHT30;54596;43.216;27.904;2023-03-31T08:45:34;9.35;70.68
67799;SHT30;54596;43.216;27.904;2023-03-31T08:48:35;9.21;71.22
67799;SHT30;54596;43.216;27.904;2023-03-31T08:51:11;9.21;72.07
67799;SHT30;54596;43.216;27.904;2023-03-31T08:53:42;9.27;72.74
67799;SHT30;54596;43.216;27.904;2023-03-31T08:56:16;9.20;73.43
67799;SHT30;54596;43.216;27.904;2023-03-31T08:58:43;9.13;73.80
67799;SHT30;54596;43.216;27.904;2023-03-31T09:01:35;9.11;73.99
67799;SHT30;54596;43.216;27.904;2023-03-31T09:04:23;9.06;75.15
67799;SHT30;54596;43.216;27.904;2023-03-31T09:07:23;9.06;75.63
67799;SHT30;54596;43.216;27.904;2023-03-31T09:10:28;9.10;75.81
67799;SHT30;54596;43.216;27.904;2023-03-31T09:16:01;9.14;77.13
67799;SHT30;54596;43.216;27.904;2023-03-31T09:18:38;9.16;77.78
67799;SHT30;54596;43.216;27.904;2023-03-31T09:21:23;9.14;77.81
67799;SHT30;54596;43.216;27.904;2023-03-31T09:23:54;9.17;78.44
67799;SHT30;54596;43.216;27.904;2023-03-31T09:26:48;9.27;79.11
67799;SHT30;54596;43.216;27.904;2023-03-31T09:29:18;9.36;79.41
67799;SHT30;54596;43.216;27.904;2023-03-31T09:31:45;9.38;79.06
67799;SHT30;54596;43.216;27.904;2023-03-31T09:34:14;9.39;79.14
67799;SHT30;54596;43.216;27.904;2023-03-31T09:36:40;9.41;79.16
67799;SHT30;54596;43.216;27.904;2023-03-31T09:39:11;9.51;79.44
67799;SHT30;54596;43.216;27.904;2023-03-31T09:41:39;9.48;79.70
67799;SHT30;54596;43.216;27.904;2023-03-31T09:44:21;9.45;79.58
67799;SHT30;54596;43.216;27.904;2023-03-31T09:46:48;9.48;79.17
67799;SHT30;54596;43.216;27.904;2023-03-31T09:49:17;9.45;78.77
67799;SHT30;54596;43.216;27.904;2023-03-31T09:51:47;9.42;79.02
67799;SHT30;54596;43.216;27.904;2023-03-31T09:54:26;9.41;78.73
67799;SHT30;54596;43.216;27.904;2023-03-31T09:56:54;9.41;78.55
67799;SHT30;54596;43.216;27.904;2023-03-31T09:59:30;9.36;78.53
67799;SHT30;54596;43.216;27.904;2023-03-31T10:01:58;9.34;78.42
67799;SHT30;54596;43.216;27.904;2023-03-31T10:04:28;9.28;79.10
67799;SHT30;54596;43.216;27.904;2023-03-31T10:06:55;9.25;79.31
67799;SHT30;54596;43.216;27.904;2023-03-31T10:09:25;9.18;79.69
67799;SHT30;54596;43.216;27.904;2023-03-31T10:12:02;9.17;79.71
67799;SHT30;54596;43.216;27.904;2023-03-31T10:15:00;9.21;80.26
67799;SHT30;54596;43.216;27.904;2023-03-31T10:17:23;9.10;80.59
67799;SHT30;54596;43.216;27.904;2023-03-31T10:19:53;9.08;80.07
67799;SHT30;54596;43.216;27.904;2023-03-31T10:24:50;9.08;80.50
67799;SHT30;54596;43.216;27.904;2023-03-31T10:27:28;9.13;81.12
67799;SHT30;54596;43.216;27.904;2023-03-31T10:29:58;9.17;81.53
67799;SHT30;54596;43.216;27.904;2023-03-31T10:32:29;9.16;82.40
67799;SHT30;54596;43.216;27.904;2023-03-31T10:34:57;9.23;83.04
67799;SHT30;54596;43.216;27.904;2023-03-31T10:37:27;9.28;83.75
67799;SHT30;54596;43.216;27.904;2023-03-31T10:40:30;9.30;83.50
67799;SHT30;54596;43.216;27.904;2023-03-31T10:43:01;9.36;83.65
67799;SHT30;54596;43.216;27.904;2023-03-31T10:45:29;9.46;83.86
67799;SHT30;54596;43.216;27.904;2023-03-31T10:47:58;9.66;83.01
67799;SHT30;54596;43.216;27.904;2023-03-31T10:50:42;9.79;82.26
67799;SHT30;54596;43.216;27.904;2023-03-31T10:53:13;9.90;82.43
67799;SHT30;54596;43.216;27.904;2023-03-31T11:01:03;10.35;80.78
67799;SHT30;54596;43.216;27.904;2023-03-31T11:06:26;10.69;79.26
67799;SHT30;54596;43.216;27.904;2023-03-31T11:09:35;10.73;79.34
67799;SHT30;54596;43.216;27.904;2023-03-31T11:14:53;10.81;78.38
67799;SHT30;54596;43.216;27.904;2023-03-31T11:23:13;11.10;77.86
67799;SHT30;54596;43.216;27.904;2023-03-31T11:25:52;11.20;78.24
67799;SHT30;54596;43.216;27.904;2023-03-31T11:33:43;11.58;76.55
67799;SHT30;54596;43.216;27.904;2023-03-31T11:39:17;11.62;76.81
67799;SHT30;54596;43.216;27.904;2023-03-31T11:42:00;11.54;77.36
67799;SHT30;54596;43.216;27.904;2023-03-31T11:44:31;11.49;77.71
67799;SHT30;54596;43.216;27.904;2023-03-31T11:47:04;11.52;77.90
67799;SHT30;54596;43.216;27.904;2023-03-31T11:49:38;11.45;77.88
67799;SHT30;54596;43.216;27.904;2023-03-31T11:52:09;11.49;78.34
67799;SHT30;54596;43.216;27.904;2023-03-31T11:54:54;11.49;77.54
67799;SHT30;54596;43.216;27.904;2023-03-31T11:59:59;11.45;77.54
67799;SHT30;54596;43.216;27.904;2023-03-31T12:02:44;11.45;78.06
67799;SHT30;54596;43.216;27.904;2023-03-31T12:05:12;11.45;77.89
67799;SHT30;54596;43.216;27.904;2023-03-31T12:07:51;11.46;78.38
67799;SHT30;54596;43.216;27.904;2023-03-31T12:10:49;11.49;78.14
67799;SHT30;54596;43.216;27.904;2023-03-31T12:16:22;11.45;78.43
67799;SHT30;54596;43.216;27.904;2023-03-31T12:21:28;11.55;77.82
67799;SHT30;54596;43.216;27.904;2023-03-31T12:23:53;11.67;77.52
67799;SHT30;54596;43.216;27.904;2023-03-31T12:26:27;11.83;77.91
67799;SHT30;54596;43.216;27.904;2023-03-31T12:29:01;11.94;77.63
67799;SHT30;54596;43.216;27.904;2023-03-31T12:31:29;12.00;77.60
67799;SHT30;54596;43.216;27.904;2023-03-31T12:34:04;12.00;77.72
67799;SHT30;54596;43.216;27.904;2023-03-31T12:39:13;12.11;77.21
67799;SHT30;54596;43.216;27.904;2023-03-31T12:55:42;11.95;78.27
67799;SHT30;54596;43.216;27.904;2023-03-31T13:11:52;12.31;77.92
67799;SHT30;54596;43.216;27.904;2023-03-31T13:14:30;12.43;78.01
67799;SHT30;54596;43.216;27.904;2023-03-31T13:17:23;12.56;77.67
67799;SHT30;54596;43.216;27.904;2023-03-31T13:19:49;12.67;77.45
67799;SHT30;54596;43.216;27.904;2023-03-31T13:24:53;12.81;77.16
67799;SHT30;54596;43.216;27.904;2023-03-31T13:27:45;12.90;77.16
67799;SHT30;54596;43.216;27.904;2023-03-31T13:33:13;13.01;77.56
67799;SHT30;54596;43.216;27.904;2023-03-31T13:35:41;13.07;76.97
67799;SHT30;54596;43.216;27.904;2023-03-31T13:38:25;13.12;76.94
67799;SHT30;54596;43.216;27.904;2023-03-31T13:43:56;13.19;76.76
67799;SHT30;54596;43.216;27.904;2023-03-31T13:46:48;13.22;77.10
67799;SHT30;54596;43.216;27.904;2023-03-31T13:49:40;13.25;77.17
67799;SHT30;54596;43.216;27.904;2023-03-31T13:52:11;13.31;77.66
67799;SHT30;54596;43.216;27.904;2023-03-31T14:00:45;13.34;77.57
67799;SHT30;54596;43.216;27.904;2023-03-31T14:11:23;13.40;78.48
67799;SHT30;54596;43.216;27.904;2023-03-31T14:14:12;13.43;78.23
67799;SHT30;54596;43.216;27.904;2023-03-31T14:16:52;13.52;77.92
67799;SHT30;54596;43.216;27.904;2023-03-31T14:19:55;13.57;77.40
67799;SHT30;54596;43.216;27.904;2023-03-31T14:38:50;13.78;77.27
67799;SHT30;54596;43.216;27.904;2023-03-31T14:41:18;13.81;77.31
67799;SHT30;54596;43.216;27.904;2023-03-31T14:43:54;13.85;76.95
67799;SHT30;54596;43.216;27.904;2023-03-31T14:46:21;13.84;76.65
67799;SHT30;54596;43.216;27.904;2023-03-31T14:48:49;13.80;76.39
67799;SHT30;54596;43.216;27.904;2023-03-31T14:51:17;13.80;76.39
67799;SHT30;54596;43.216;27.904;2023-03-31T14:53:43;13.77;76.41
67799;SHT30;54596;43.216;27.904;2023-03-31T14:56:15;13.71;76.35
67799;SHT30;54596;43.216;27.904;2023-03-31T14:58:48;13.69;76.49
67799;SHT30;54596;43.216;27.904;2023-03-31T15:01:18;13.78;76.86
67799;SHT30;54596;43.216;27.904;2023-03-31T15:03:48;13.76;76.48
67799;SHT30;54596;43.216;27.904;2023-03-31T15:06:14;13.76;76.50
67799;SHT30;54596;43.216;27.904;2023-03-31T15:08:40;13.74;76.49
67799;SHT30;54596;43.216;27.904;2023-03-31T15:11:14;13.67;76.46
67799;SHT30;54596;43.216;27.904;2023-03-31T15:13:43;13.67;76.65
67799;SHT30;54596;43.216;27.904;2023-03-31T15:16:42;13.65;77.04
67799;SHT30;54596;43.216;27.904;2023-03-31T15:19:23;13.60;76.39
67799;SHT30;54596;43.216;27.904;2023-03-31T15:22:11;13.59;76.74
67799;SHT30;54596;43.216;27.904;2023-03-31T15:24:38;13.63;77.01
67799;SHT30;54596;43.216;27.904;2023-03-31T15:27:30;13.62;76.85
67799;SHT30;54596;43.216;27.904;2023-03-31T15:29:58;13.66;76.36
67799;SHT30;54596;43.216;27.904;2023-03-31T15:32:27;13.70;75.98
67799;SHT30;54596;43.216;27.904;2023-03-31T15:34:54;13.73;75.73
67799;SHT30;54596;43.216;27.904;2023-03-31T15:37:26;13.69;75.77
67799;SHT30;54596;43.216;27.904;2023-03-31T15:39:55;13.67;76.06
67799;SHT30;54596;43.216;27.904;2023-03-31T15:42:23;13.62;76.23
67799;SHT30;54596;43.216;27.904;2023-03-31T15:47:35;13.62;76.00
67799;SHT30;54596;43.216;27.904;2023-03-31T15:52:36;13.57;76.21
67799;SHT30;54596;43.216;27.904;2023-03-31T15:57:52;13.15;77.10
67799;SHT30;54596;43.216;27.904;2023-03-31T16:03:02;12.80;77.99
67799;SHT30;54596;43.216;27.904;2023-03-31T16:08:35;12.62;78.29
67799;SHT30;54596;43.216;27.904;2023-03-31T16:11:01;12.57;78.51
67799;SHT30;54596;43.216;27.904;2023-03-31T16:13:29;12.46;78.86
67799;SHT30;54596;43.216;27.904;2023-03-31T16:15:55;12.36;79.49
67799;SHT30;54596;43.216;27.904;2023-03-31T16:18:49;12.26;79.65
67799;SHT30;54596;43.216;27.904;2023-03-31T16:21:20;12.22;79.83
67799;SHT30;54596;43.216;27.904;2023-03-31T16:23:53;12.21;79.87
67799;SHT30;54596;43.216;27.904;2023-03-31T16:26:22;12.18;79.81
67799;SHT30;54596;43.216;27.904;2023-03-31T16:28:52;12.15;80.01
67799;SHT30;54596;43.216;27.904;2023-03-31T16:31:38;12.14;80.15
67799;SHT30;54596;43.216;27.904;2023-03-31T16:34:09;12.05;80.30
67799;SHT30;54596;43.216;27.904;2023-03-31T16:36:35;11.97;80.56
67799;SHT30;54596;43.216;27.904;2023-03-31T16:39:03;11.97;80.75
67799;SHT30;54596;43.216;27.904;2023-03-31T16:41:33;11.94;80.78
67799;SHT30;54596;43.216;27.904;2023-03-31T16:44:00;11.91;80.75
67799;SHT30;54596;43.216;27.904;2023-03-31T16:46:26;11.83;81.07
67799;SHT30;54596;43.216;27.904;2023-03-31T16:48:52;11.81;81.25
67799;SHT30;54596;43.216;27.904;2023-03-31T16:51:18;11.77;81.24
67799;SHT30;54596;43.216;27.904;2023-03-31T16:53:45;11.70;81.88
67799;SHT30;54596;43.216;27.904;2023-03-31T16:56:11;11.66;81.86
67799;SHT30;54596;43.216;27.904;2023-03-31T16:58:37;11.67;81.92
67799;SHT30;54596;43.216;27.904;2023-03-31T17:01:04;11.62;81.77
67799;SHT30;54596;43.216;27.904;2023-03-31T17:03:31;11.67;83.23
67799;SHT30;54596;43.216;27.904;2023-03-31T17:05:57;11.67;83.68
67799;SHT30;54596;43.216;27.904;2023-03-31T17:08:28;11.69;82.62
67799;SHT30;54596;43.216;27.904;2023-03-31T17:11:05;11.66;83.53
67799;SHT30;54596;43.216;27.904;2023-03-31T17:13:31;11.66;83.12
67799;SHT30;54596;43.216;27.904;2023-03-31T17:15:58;11.61;82.89
67799;SHT30;54596;43.216;27.904;2023-03-31T17:18:24;11.46;83.17
67799;SHT30;54596;43.216;27.904;2023-03-31T17:20:50;11.45;83.25
67799;SHT30;54596;43.216;27.904;2023-03-31T17:23:18;11.43;83.47
67799;SHT30;54596;43.216;27.904;2023-03-31T17:25:52;11.48;84.35
67799;SHT30;54596;43.216;27.904;2023-03-31T17:28:18;11.45;84.59
67799;SHT30;54596;43.216;27.904;2023-03-31T17:30:44;11.45;84.75
67799;SHT30;54596;43.216;27.904;2023-03-31T17:33:13;11.40;84.45
67799;SHT30;54596;43.216;27.904;2023-03-31T17:35:39;11.38;84.26
67799;SHT30;54596;43.216;27.904;2023-03-31T17:38:05;11.28;84.24
67799;SHT30;54596;43.216;27.904;2023-03-31T17:40:31;11.27;85.13
67799;SHT30;54596;43.216;27.904;2023-03-31T17:42:59;11.29;85.04
67799;SHT30;54596;43.216;27.904;2023-03-31T17:45:25;11.31;84.75
67799;SHT30;54596;43.216;27.904;2023-03-31T17:47:50;11.24;84.29
67799;SHT30;54596;43.216;27.904;2023-03-31T17:50:16;11.20;84.45
67799;SHT30;54596;43.216;27.904;2023-03-31T17:52:42;11.15;84.31
67799;SHT30;54596;43.216;27.904;2023-03-31T17:55:08;11.06;84.63
67799;SHT30;54596;43.216;27.904;2023-03-31T17:57:33;11.00;84.69
67799;SHT30;54596;43.216;27.904;2023-03-31T18:00:02;10.96;84.67
67799;SHT30;54596;43.216;27.904;2023-03-31T18:02:28;10.86;85.21
67799;SHT30;54596;43.216;27.904;2023-03-31T18:04:53;10.87;84.98
67799;SHT30;54596;43.216;27.904;2023-03-31T18:07:20;10.89;84.86
67799;SHT30;54596;43.216;27.904;2023-03-31T18:09:47;10.86;84.98
67799;SHT30;54596;43.216;27.904;2023-03-31T18:12:13;10.86;85.02
67799;SHT30;54596;43.216;27.904;2023-03-31T18:14:40;10.90;84.89
67799;SHT30;54596;43.216;27.904;2023-03-31T18:17:06;10.92;84.88
67799;SHT30;54596;43.216;27.904;2023-03-31T18:19:31;10.92;84.93
67799;SHT30;54596;43.216;27.904;2023-03-31T18:21:59;10.94;85.05
67799;SHT30;54596;43.216;27.904;2023-03-31T18:24:24;10.96;85.05
67799;SHT30;54596;43.216;27.904;2023-03-31T18:26:50;10.92;85.14
67799;SHT30;54596;43.216;27.904;2023-03-31T18:29:16;11.01;85.12
67799;SHT30;54596;43.216;27.904;2023-03-31T18:31:41;10.99;85.00
67799;SHT30;54596;43.216;27.904;2023-03-31T18:34:07;11.06;84.72